createdAt,value
2019-04-04T00:01:35.035Z,15.67
2019-04-04T00:04:06.414Z,16.00
2019-04-04T00:06:38.110Z,16.67
2019-04-04T00:09:11.630Z,17.37
2019-04-04T00:11:42.627Z,15.57
2019-04-04T00:14:14.433Z,20.00
2019-04-04T00:16:46.759Z,16.40
2019-04-04T00:19:19.255Z,17.13
2019-04-04T00:21:50.720Z,17.40
2019-04-04T00:24:22.312Z,15.23
2019-04-04T00:26:53.667Z,15.57
2019-04-04T00:29:25.894Z,16.60
2019-04-04T00:31:58.995Z,17.27
2019-04-04T00:34:30.407Z,15.30
2019-04-04T00:37:04.401Z,17.07
2019-04-04T00:39:35.241Z,17.93
2019-04-04T00:42:10.330Z,16.13
2019-04-04T00:44:42.065Z,17.27
2019-04-04T00:47:14.062Z,15.47
2019-04-04T00:49:45.935Z,15.40
2019-04-04T00:52:17.448Z,15.03
2019-04-04T00:54:49.121Z,16.40
2019-04-04T00:57:21.232Z,20.97
2019-04-04T00:59:56.180Z,17.47
2019-04-04T01:02:27.985Z,15.50
2019-04-04T01:05:01.304Z,15.17
2019-04-04T01:07:33.946Z,16.23
2019-04-04T01:10:07.651Z,14.77
2019-04-04T01:12:38.988Z,17.20
2019-04-04T01:15:10.823Z,15.47
2019-04-04T01:17:42.423Z,18.77
2019-04-04T01:20:14.335Z,16.40
2019-04-04T01:22:46.680Z,19.07
2019-04-04T01:25:18.187Z,13.03
2019-04-04T01:27:49.455Z,13.17
2019-04-04T01:30:21.792Z,13.03
2019-04-04T01:32:53.357Z,12.07
2019-04-04T01:35:25.061Z,12.20
2019-04-04T01:38:03.421Z,9.93
2019-04-04T01:40:35.200Z,9.40
2019-04-04T01:43:08.878Z,8.87
2019-04-04T01:45:39.923Z,9.20
2019-04-04T01:48:11.227Z,8.37
2019-04-04T01:50:42.692Z,8.73
2019-04-04T01:53:14.852Z,7.67
2019-04-04T01:55:46.994Z,8.47
2019-04-04T01:58:18.644Z,7.23
2019-04-04T02:00:50.045Z,8.67
2019-04-04T02:03:22.675Z,5.87
2019-04-04T02:05:58.117Z,4.37
2019-04-04T02:08:31.377Z,4.70
2019-04-04T02:11:05.238Z,3.83
2019-04-04T02:13:35.684Z,3.63
2019-04-04T02:16:07.314Z,3.97
2019-04-04T02:18:38.533Z,3.20
2019-04-04T02:21:10.350Z,3.73
2019-04-04T02:23:41.468Z,3.17
2019-04-04T02:26:12.748Z,2.93
2019-04-04T02:28:44.242Z,3.43
2019-04-04T02:31:15.905Z,3.20
2019-04-04T02:33:47.469Z,3.03
2019-04-04T02:36:18.803Z,4.63
2019-04-04T02:39:07.162Z,2.43
2019-04-04T02:41:39.254Z,2.50
2019-04-04T02:44:13.926Z,3.50
2019-04-04T02:46:45.829Z,2.67
2019-04-04T02:49:17.635Z,2.50
2019-04-04T02:51:48.767Z,3.13
2019-04-04T02:54:24.170Z,4.13
2019-04-04T02:56:53.623Z,2.73
2019-04-04T02:59:24.924Z,2.07
2019-04-04T03:01:56.601Z,2.57
2019-04-04T03:04:28.383Z,2.70
2019-04-04T03:06:59.582Z,2.47
2019-04-04T03:09:31.332Z,2.70
2019-04-04T03:12:02.748Z,2.70
2019-04-04T03:14:37.428Z,5.40
2019-04-04T03:17:08.940Z,3.53
2019-04-04T03:19:43.790Z,3.17
2019-04-04T03:22:15.241Z,5.13
2019-04-04T03:24:46.609Z,4.30
2019-04-04T03:27:17.877Z,3.07
2019-04-04T03:29:49.778Z,2.63
2019-04-04T03:32:21.390Z,3.37
2019-04-04T03:34:52.758Z,3.07
2019-04-04T03:37:24.100Z,3.13
2019-04-04T03:39:55.499Z,3.10
2019-04-04T03:42:27.653Z,3.40
2019-04-04T03:44:59.200Z,3.50
2019-04-04T03:47:30.529Z,3.20
2019-04-04T03:50:01.991Z,2.80
2019-04-04T03:52:33.924Z,2.50
2019-04-04T03:55:06.500Z,2.60
2019-04-04T03:57:39.545Z,3.70
2019-04-04T04:00:11.378Z,3.80
2019-04-04T04:02:42.637Z,3.00
2019-04-04T04:05:26.828Z,3.70
2019-04-04T04:07:59.472Z,2.70
2019-04-04T04:10:33.322Z,3.23
2019-04-04T04:13:03.775Z,2.43
2019-04-04T04:15:35.331Z,2.60
2019-04-04T04:18:09.007Z,2.77
2019-04-04T04:20:40.644Z,2.93
2019-04-04T04:23:12.161Z,3.10
2019-04-04T04:25:45.907Z,2.50
2019-04-04T04:28:19.737Z,2.97
2019-04-04T04:30:50.340Z,2.90
2019-04-04T04:33:21.591Z,2.43
2019-04-04T04:35:53.649Z,3.30
2019-04-04T04:38:26.876Z,3.47
2019-04-04T04:40:58.259Z,2.30
2019-04-04T04:43:33.667Z,2.47
2019-04-04T04:46:09.137Z,3.40
2019-04-04T04:48:43.456Z,5.40
2019-04-04T04:51:15.658Z,4.20
2019-04-04T04:53:48.238Z,3.70
2019-04-04T04:56:20.170Z,5.03
2019-04-04T04:58:51.757Z,3.70
2019-04-04T05:01:23.057Z,5.40
2019-04-04T05:03:56.507Z,4.20
2019-04-04T05:06:28.488Z,2.87
2019-04-04T05:09:00.597Z,3.13
2019-04-04T05:11:34.409Z,3.13
2019-04-04T05:14:05.962Z,3.33
2019-04-04T05:16:37.902Z,2.70
2019-04-04T05:19:19.009Z,5.90
2019-04-04T05:21:54.696Z,4.73
2019-04-04T05:24:27.987Z,4.97
2019-04-04T05:26:59.823Z,4.43
2019-04-04T05:29:35.529Z,3.73
2019-04-04T05:32:07.447Z,3.93
2019-04-04T05:34:39.230Z,5.67
2019-04-04T05:37:12.720Z,4.60
2019-04-04T05:39:47.030Z,4.67
2019-04-04T05:42:18.798Z,4.50
2019-04-04T05:44:50.339Z,3.83
2019-04-04T05:47:23.973Z,3.57
2019-04-04T05:49:55.320Z,3.87
2019-04-04T05:52:28.288Z,4.20
2019-04-04T05:54:59.839Z,3.67
2019-04-04T05:57:30.862Z,4.17
2019-04-04T06:00:03.660Z,5.03
2019-04-04T06:02:38.523Z,4.30
2019-04-04T06:05:10.501Z,2.93
2019-04-04T06:07:42.437Z,4.03
2019-04-04T06:10:18.112Z,4.53
2019-04-04T06:12:47.575Z,3.30
2019-04-04T06:15:18.966Z,3.43
2019-04-04T06:17:50.738Z,2.80
2019-04-04T06:20:25.414Z,7.10
2019-04-04T06:22:56.688Z,3.93
2019-04-04T06:25:27.877Z,4.10
2019-04-04T06:27:59.222Z,2.90
2019-04-04T06:30:42.650Z,4.97
2019-04-04T06:33:04.889Z,5.27
2019-04-04T06:35:39.546Z,4.07
2019-04-04T06:38:09.908Z,5.00
2019-04-04T06:40:41.092Z,8.10
2019-04-04T06:43:12.605Z,7.90
2019-04-04T06:45:50.875Z,6.63
2019-04-04T06:48:22.193Z,6.43
2019-04-04T06:50:53.493Z,7.40
2019-04-04T06:53:25.044Z,7.57
2019-04-04T06:55:58.176Z,8.07
2019-04-04T06:58:29.043Z,7.10
2019-04-04T07:01:01.512Z,5.77
2019-04-04T07:03:35.241Z,7.90
2019-04-04T07:06:10.206Z,5.70
2019-04-04T07:08:45.138Z,4.93
2019-04-04T07:11:21.521Z,6.63
2019-04-04T07:13:50.946Z,5.83
2019-04-04T07:16:22.120Z,8.13
2019-04-04T07:18:53.664Z,6.93
2019-04-04T07:21:25.388Z,7.60
2019-04-04T07:24:00.109Z,8.20
2019-04-04T07:26:31.891Z,7.80
2019-04-04T07:29:04.214Z,6.67
2019-04-04T07:31:38.343Z,8.13
2019-04-04T07:34:09.127Z,7.93
2019-04-04T07:36:40.432Z,8.13
2019-04-04T07:39:12.540Z,10.83
2019-04-04T07:41:46.572Z,8.13
2019-04-04T07:44:18.314Z,9.40
2019-04-04T07:46:51.545Z,9.43
2019-04-04T07:49:25.668Z,11.20
2019-04-04T07:52:03.066Z,11.87
2019-04-04T07:54:38.036Z,12.77
2019-04-04T07:57:17.305Z,10.13
2019-04-04T07:59:50.178Z,11.03
2019-04-04T08:02:21.741Z,12.47
2019-04-04T08:04:54.431Z,9.90
2019-04-04T08:07:27.806Z,10.50
2019-04-04T08:09:59.200Z,9.63
2019-04-04T08:12:32.352Z,10.13
2019-04-04T08:15:03.718Z,9.10
2019-04-04T08:17:35.589Z,9.47
2019-04-04T08:20:07.028Z,8.10
2019-04-04T08:22:39.811Z,9.47
2019-04-04T08:25:11.681Z,8.87
2019-04-04T08:27:43.387Z,8.77
2019-04-04T08:30:15.516Z,10.07
2019-04-04T08:32:49.604Z,9.03
2019-04-04T08:35:20.893Z,9.33
2019-04-04T08:37:54.031Z,10.03
2019-04-04T08:40:41.912Z,9.70
2019-04-04T08:43:17.029Z,10.13
2019-04-04T08:45:52.226Z,10.40
2019-04-04T08:48:24.791Z,10.40
2019-04-04T08:50:59.290Z,10.77
2019-04-04T08:53:40.137Z,10.80
2019-04-04T08:56:14.067Z,10.13
2019-04-04T08:58:47.128Z,10.40
2019-04-04T09:01:18.824Z,10.73
2019-04-04T09:03:53.878Z,10.63
2019-04-04T09:06:26.465Z,10.03
2019-04-04T09:09:03.139Z,11.80
2019-04-04T09:11:35.188Z,11.50
2019-04-04T09:14:06.750Z,11.43
2019-04-04T09:16:56.915Z,11.23
2019-04-04T09:19:26.951Z,15.47
2019-04-04T09:21:58.295Z,11.93
2019-04-04T09:24:29.558Z,11.57
2019-04-04T09:27:01.523Z,11.23
2019-04-04T09:29:32.841Z,11.53
2019-04-04T09:32:07.387Z,12.30
2019-04-04T09:34:44.886Z,12.37
2019-04-04T09:37:17.751Z,12.47
2019-04-04T09:39:49.424Z,11.97
2019-04-04T09:42:27.691Z,13.07
2019-04-04T09:45:03.984Z,13.50
2019-04-04T09:47:39.252Z,13.57
2019-04-04T09:50:11.464Z,14.07
2019-04-04T09:52:43.330Z,13.77
2019-04-04T09:55:19.219Z,15.07
2019-04-04T09:57:52.537Z,15.00
2019-04-04T10:00:33.479Z,15.43
2019-04-04T10:03:16.051Z,15.23
2019-04-04T10:05:52.164Z,14.70
2019-04-04T10:08:28.855Z,14.90
2019-04-04T10:11:00.587Z,14.43
2019-04-04T10:13:37.772Z,15.47
2019-04-04T10:16:09.449Z,15.47
2019-04-04T10:18:40.860Z,16.53
2019-04-04T10:21:17.852Z,17.90
2019-04-04T10:23:52.845Z,16.30
2019-04-04T10:26:26.160Z,15.90
2019-04-04T10:29:03.984Z,16.70
2019-04-04T10:31:37.772Z,15.70
2019-04-04T10:34:15.277Z,15.63
2019-04-04T10:36:54.548Z,16.43
2019-04-04T10:43:59.365Z,16.37
2019-04-04T10:47:23.902Z,15.80
2019-04-04T10:50:01.077Z,15.60
2019-04-04T10:52:37.162Z,17.97
2019-04-04T10:55:10.687Z,15.30
2019-04-04T10:57:46.322Z,16.23
2019-04-04T11:00:23.199Z,15.43
2019-04-04T11:02:56.976Z,17.27
2019-04-04T11:05:38.396Z,16.67
2019-04-04T11:08:39.245Z,16.37
2019-04-04T11:11:12.481Z,17.60
2019-04-04T11:13:55.211Z,18.73
2019-04-04T11:16:30.456Z,18.07
2019-04-04T11:19:03.100Z,17.77
2019-04-04T11:21:36.656Z,19.37
2019-04-04T11:24:13.233Z,18.50
2019-04-04T11:26:48.259Z,20.33
2019-04-04T11:29:23.706Z,19.33
2019-04-04T11:31:56.006Z,17.30
2019-04-04T11:34:28.494Z,20.30
2019-04-04T11:36:59.664Z,21.47
2019-04-04T11:39:31.132Z,18.40
2019-04-04T11:42:03.939Z,18.10
2019-04-04T11:44:35.715Z,18.83
2019-04-04T11:47:09.475Z,19.17
2019-04-04T11:49:41.239Z,19.40
2019-04-04T11:52:12.649Z,19.87
2019-04-04T11:55:03.183Z,20.47
2019-04-04T11:57:34.452Z,21.60
2019-04-04T12:00:07.590Z,23.43
2019-04-04T12:02:39.197Z,23.10
2019-04-04T12:05:14.664Z,20.87
2019-04-04T12:07:46.363Z,21.47
2019-04-04T12:10:20.252Z,20.63
2019-04-04T12:12:53.883Z,24.33
2019-04-04T12:15:28.169Z,22.30
2019-04-04T12:18:06.337Z,20.60
2019-04-04T12:20:45.551Z,20.07
2019-04-04T12:23:16.960Z,22.37
2019-04-04T12:25:48.130Z,28.43
2019-04-04T12:28:21.091Z,33.67
2019-04-04T12:30:52.819Z,28.57
2019-04-04T12:33:24.090Z,28.33
2019-04-04T12:35:59.270Z,31.93
2019-04-04T12:38:30.439Z,38.60
2019-04-04T12:41:09.641Z,33.67
2019-04-04T12:43:41.581Z,36.70
2019-04-04T12:46:14.332Z,38.80
2019-04-04T12:48:54.376Z,37.03
2019-04-04T12:51:31.154Z,41.00
2019-04-04T12:54:08.248Z,40.23
2019-04-04T12:56:44.638Z,39.90
2019-04-04T12:59:26.091Z,43.10
2019-04-04T13:01:58.288Z,39.30
2019-04-04T13:04:32.325Z,39.93
2019-04-04T13:07:06.532Z,40.97
2019-04-04T13:09:47.100Z,34.03
2019-04-04T13:12:31.826Z,34.70
2019-04-04T13:15:08.923Z,43.03
2019-04-04T13:17:46.454Z,35.63
2019-04-04T13:20:22.100Z,38.50
2019-04-04T13:22:57.695Z,39.90
2019-04-04T13:25:36.058Z,39.30
2019-04-04T13:28:10.196Z,37.70
2019-04-04T13:30:42.097Z,36.93
2019-04-04T13:33:16.386Z,39.73
2019-04-04T13:35:50.729Z,39.50
2019-04-04T13:38:30.720Z,40.40
2019-04-04T13:41:02.937Z,40.73
2019-04-04T13:43:42.230Z,40.57
2019-04-04T13:46:16.784Z,40.73
2019-04-04T13:48:50.427Z,39.73
2019-04-04T13:51:37.518Z,38.37
2019-04-04T13:54:18.349Z,38.87
2019-04-04T13:56:53.669Z,39.50
2019-04-04T13:59:35.786Z,40.17
2019-04-04T14:02:10.442Z,36.20
2019-04-04T14:04:42.712Z,39.47
2019-04-04T14:07:14.381Z,45.93
2019-04-04T14:09:48.731Z,37.70
2019-04-04T14:12:30.335Z,38.80
2019-04-04T14:15:00.754Z,41.37
2019-04-04T14:17:33.408Z,36.40
2019-04-04T14:20:12.750Z,32.73
2019-04-04T14:22:44.885Z,30.27
2019-04-04T14:25:19.628Z,32.87
2019-04-04T14:27:53.382Z,32.57
2019-04-04T14:30:26.309Z,31.73
2019-04-04T14:32:58.142Z,28.77
2019-04-04T14:35:30.140Z,29.30
2019-04-04T14:38:04.402Z,29.37
2019-04-04T14:40:45.155Z,33.10
2019-04-04T14:43:19.666Z,31.17
2019-04-04T14:45:51.100Z,29.63
2019-04-04T14:48:22.442Z,32.87
2019-04-04T14:50:53.759Z,26.20
2019-04-04T14:53:27.404Z,29.23
2019-04-04T14:55:58.625Z,29.70
2019-04-04T14:58:30.859Z,35.03
2019-04-04T15:01:05.608Z,31.33
2019-04-04T15:04:08.142Z,27.00
2019-04-04T15:07:16.366Z,26.87
2019-04-04T15:09:52.826Z,30.57
2019-04-04T15:12:31.426Z,27.23
2019-04-04T15:15:08.789Z,28.33
2019-04-04T15:17:49.528Z,30.50
2019-04-04T15:20:27.386Z,26.70
2019-04-04T15:23:01.792Z,31.37
2019-04-04T15:25:43.408Z,32.97
2019-04-04T15:28:15.324Z,34.23
2019-04-04T15:30:46.503Z,29.40
2019-04-04T15:33:18.411Z,27.57
2019-04-04T15:35:49.870Z,26.47
2019-04-04T15:38:27.631Z,28.70
2019-04-04T15:41:01.189Z,25.60
2019-04-04T15:43:40.804Z,29.67
2019-04-04T15:46:15.732Z,28.07
2019-04-04T15:48:47.690Z,26.90
2019-04-04T15:51:27.172Z,25.13
2019-04-04T15:54:01.769Z,30.23
2019-04-04T15:56:37.689Z,26.27
2019-04-04T15:59:28.701Z,26.47
2019-04-04T16:02:18.684Z,25.60
2019-04-04T16:04:55.097Z,24.73
2019-04-04T16:07:32.181Z,24.83
2019-04-04T16:10:14.524Z,23.20
2019-04-04T16:12:52.740Z,22.43
2019-04-04T16:15:29.533Z,24.40
2019-04-04T16:18:07.339Z,24.57
2019-04-04T16:20:42.740Z,26.13
2019-04-04T16:23:17.486Z,23.03
2019-04-04T16:25:49.287Z,23.63
2019-04-04T16:28:34.183Z,26.40
2019-04-04T16:31:12.243Z,26.03
2019-04-04T16:33:45.427Z,24.97
2019-04-04T16:36:21.202Z,31.90
2019-04-04T16:39:00.152Z,28.93
2019-04-04T16:41:37.456Z,29.13
2019-04-04T16:44:10.103Z,27.07
2019-04-04T16:46:45.343Z,27.93
2019-04-04T16:49:21.557Z,29.87
2019-04-04T16:52:07.318Z,31.13
2019-04-04T16:54:39.950Z,32.93
2019-04-04T16:57:11.615Z,32.60
2019-04-04T16:59:44.858Z,27.50
2019-04-04T17:02:19.803Z,32.70
2019-04-04T17:04:53.085Z,29.33
2019-04-04T17:07:31.376Z,29.63
2019-04-04T17:10:05.820Z,26.80
2019-04-04T17:12:41.611Z,31.63
2019-04-04T17:15:14.464Z,33.73
2019-04-04T17:17:49.287Z,30.17
2019-04-04T17:20:25.613Z,30.57
2019-04-04T17:22:59.740Z,28.93
2019-04-04T17:25:33.881Z,33.77
2019-04-04T17:28:06.813Z,30.53
2019-04-04T17:30:44.086Z,36.73
2019-04-04T17:33:24.235Z,32.97
2019-04-04T17:36:08.453Z,33.00
2019-04-04T17:38:42.581Z,34.57
2019-04-04T17:41:17.479Z,38.40
2019-04-04T17:43:57.798Z,35.90
2019-04-04T17:46:30.815Z,35.50
2019-04-04T17:49:04.343Z,35.80
2019-04-04T17:51:38.847Z,38.13
2019-04-04T17:57:10.967Z,35.77
2019-04-04T17:59:50.123Z,39.57
2019-04-04T18:02:23.991Z,46.93
2019-04-04T18:04:56.129Z,44.63
2019-04-04T18:07:35.888Z,43.10
2019-04-04T18:10:10.833Z,42.27
2019-04-04T18:12:49.561Z,44.10
2019-04-04T18:15:29.431Z,46.80
2019-04-04T18:18:06.660Z,43.30
2019-04-04T18:20:48.568Z,41.13
2019-04-04T18:23:23.815Z,47.17
2019-04-04T18:26:00.788Z,47.87
2019-04-04T18:28:34.982Z,44.90
2019-04-04T18:31:13.845Z,46.23
2019-04-04T18:33:49.468Z,44.90
2019-04-04T18:36:23.437Z,48.57
2019-04-04T18:39:05.802Z,53.17
2019-04-04T18:41:47.593Z,47.43
2019-04-04T18:44:24.093Z,49.17
2019-04-04T18:47:00.246Z,52.33
2019-04-04T18:49:41.926Z,48.63
2019-04-04T18:52:15.115Z,52.77
2019-04-04T18:54:50.090Z,48.67
2019-04-04T18:57:27.180Z,52.10
2019-04-04T19:00:00.128Z,50.23
2019-04-04T19:02:32.890Z,52.70
2019-04-04T19:05:13.938Z,50.17
2019-04-04T19:07:51.191Z,50.77
2019-04-04T19:10:29.567Z,53.97
2019-04-04T19:13:17.489Z,52.13
2019-04-04T19:15:53.568Z,48.10
2019-04-04T19:18:28.933Z,49.37
2019-04-04T19:21:05.288Z,54.57
2019-04-04T19:23:49.567Z,57.47
2019-04-04T19:26:36.496Z,51.80
2019-04-04T19:29:22.029Z,52.07
2019-04-04T19:32:00.041Z,57.27
2019-04-04T19:34:35.973Z,55.57
2019-04-04T19:37:08.714Z,55.23
2019-04-04T19:39:54.494Z,55.77
2019-04-04T19:42:30.281Z,58.83
2019-04-04T19:45:10.349Z,58.23
2019-04-04T19:47:46.106Z,60.70
2019-04-04T19:50:30.780Z,53.50
2019-04-04T19:53:10.784Z,53.83
2019-04-04T19:55:47.945Z,53.50
2019-04-04T19:58:28.431Z,57.33
2019-04-04T20:01:02.787Z,54.57
2019-04-04T20:03:36.646Z,57.07
2019-04-04T20:06:13.454Z,55.30
2019-04-04T20:09:00.341Z,53.73
2019-04-04T20:11:49.819Z,54.00
2019-04-04T20:14:22.066Z,57.83
2019-04-04T20:17:04.258Z,58.03
2019-04-04T20:19:41.059Z,56.70
2019-04-04T20:22:14.665Z,57.70
2019-04-04T20:24:52.512Z,64.60
2019-04-04T20:27:24.551Z,58.93
2019-04-04T20:29:58.251Z,56.10
2019-04-04T20:32:39.712Z,56.50
2019-04-04T20:35:31.706Z,57.63
2019-04-04T20:38:03.764Z,55.63
2019-04-04T20:40:36.773Z,59.07
2019-04-04T20:43:16.540Z,58.93
2019-04-04T20:45:49.331Z,60.70
2019-04-04T20:48:23.237Z,57.03
2019-04-04T20:50:54.821Z,58.30
2019-04-04T20:53:27.167Z,59.93
2019-04-04T20:56:05.748Z,53.90
2019-04-04T20:58:40.247Z,56.10
2019-04-04T21:01:17.131Z,61.80
2019-04-04T21:03:59.095Z,58.37
2019-04-04T21:06:35.312Z,54.57
2019-04-04T21:09:13.522Z,55.47
2019-04-04T21:11:50.285Z,51.60
2019-04-04T21:14:28.207Z,52.87
2019-04-04T21:17:01.461Z,52.93
2019-04-04T21:19:33.728Z,47.97
2019-04-04T21:22:05.718Z,48.27
2019-04-04T21:24:46.942Z,52.83
2019-04-04T21:27:24.344Z,48.10
2019-04-04T21:30:07.060Z,45.67
2019-04-04T21:32:47.835Z,46.47
2019-04-04T21:35:21.716Z,47.10
2019-04-04T21:37:54.974Z,44.10
2019-04-04T21:40:31.041Z,46.07
2019-04-04T21:43:08.456Z,44.37
2019-04-04T21:45:39.914Z,44.37
2019-04-04T21:48:19.513Z,43.83
2019-04-04T21:50:51.339Z,42.90
2019-04-04T21:53:25.203Z,43.93
2019-04-04T21:55:56.867Z,42.47
2019-04-04T21:58:28.021Z,44.83
2019-04-04T22:00:59.459Z,46.10
2019-04-04T22:03:32.404Z,46.97
2019-04-04T22:06:08.086Z,46.00
2019-04-04T22:08:39.667Z,45.53
2019-04-04T22:11:14.963Z,41.70
2019-04-04T22:13:48.082Z,42.93
2019-04-04T22:16:22.077Z,47.97
2019-04-04T22:18:56.293Z,46.43
2019-04-04T22:21:29.607Z,44.97
2019-04-04T22:24:01.579Z,49.33
2019-04-04T22:26:33.081Z,42.27
2019-04-04T22:29:07.874Z,46.03
2019-04-04T22:31:39.736Z,44.53
2019-04-04T22:34:11.153Z,46.40
2019-04-04T22:36:42.298Z,45.80
2019-04-04T22:39:13.482Z,46.03
2019-04-04T22:41:44.688Z,46.80
2019-04-04T22:44:20.442Z,45.43
2019-04-04T22:46:52.458Z,55.10
2019-04-04T22:49:27.541Z,48.45
2019-04-04T22:51:58.893Z,44.73
2019-04-04T22:54:30.350Z,49.43
2019-04-04T22:57:01.546Z,47.67
2019-04-04T22:59:32.548Z,50.20
2019-04-04T23:02:04.262Z,44.83
2019-04-04T23:04:38.761Z,46.77
2019-04-04T23:07:11.841Z,51.03
2019-04-04T23:09:43.455Z,48.97
2019-04-04T23:12:17.425Z,44.40
2019-04-04T23:14:52.228Z,51.27
2019-04-04T23:17:26.426Z,52.03
2019-04-04T23:20:02.794Z,53.27
2019-04-04T23:22:37.904Z,52.50
2019-04-04T23:25:09.997Z,51.13
2019-04-04T23:27:41.648Z,54.23
2019-04-04T23:30:13.070Z,57.07
2019-04-04T23:32:48.953Z,57.30
2019-04-04T23:35:20.697Z,61.97
2019-04-04T23:37:51.995Z,58.50
2019-04-04T23:40:24.609Z,59.87
2019-04-04T23:43:07.817Z,52.93
2019-04-04T23:45:41.901Z,59.10
2019-04-04T23:48:15.632Z,57.53
